Time;durP1;ratioP1;P1;durP2;ratioP2;P2;SDS_P1;SDS_P2;PMS_P1;PMS_P2;Temp;Humidity;BMP_temperature;BMP_pressure;BME280_temperature;BME280_humidity;BME280_pressure;Samples;Min_cycle;Max_cycle;Signal;HPM_P1;HPM_P2
2021/06/28 00:01:26;;;;;;;3.07;2.87;;;20.60;99.90;;;;;;4986815;28;21111;-58
2021/06/28 00:03:53;;;;;;;3.50;2.70;;;20.60;99.90;;;;;;4980691;28;20179;-58
2021/06/28 00:06:19;;;;;;;2.83;2.45;;;20.40;99.90;;;;;;4982524;28;20254;-59
2021/06/28 00:08:45;;;;;;;3.10;2.90;;;20.40;99.90;;;;;;4988621;28;20238;-58
2021/06/28 00:11:11;;;;;;;4.20;3.00;;;20.40;99.90;;;;;;4988611;28;20620;-59
2021/06/28 00:13:38;;;;;;;3.03;2.83;;;20.40;99.90;;;;;;4989001;28;20190;-59
2021/06/28 00:16:05;;;;;;;3.45;3.15;;;20.50;99.90;;;;;;4985923;28;20462;-60
2021/06/28 00:18:31;;;;;;;2.97;2.78;;;20.50;99.90;;;;;;4986667;28;20265;-58
2021/06/28 00:20:57;;;;;;;2.58;2.47;;;20.60;99.90;;;;;;4988842;28;20278;-58
2021/06/28 00:23:23;;;;;;;3.55;3.17;;;20.60;99.90;;;;;;4980439;28;20666;-59
2021/06/28 00:25:49;;;;;;;2.67;2.47;;;20.60;99.90;;;;;;4988502;28;20191;-59
2021/06/28 00:28:14;;;;;;;2.85;2.65;;;20.60;99.90;;;;;;4984377;28;20203;-58
2021/06/28 00:30:42;;;;;;;3.30;3.00;;;20.60;99.90;;;;;;4989434;28;20569;-59
2021/06/28 00:33:11;;;;;;;3.00;2.70;;;20.50;99.90;;;;;;4982471;28;20242;-59
2021/06/28 00:35:37;;;;;;;2.97;2.78;;;20.30;99.90;;;;;;4988269;28;20294;-58
2021/06/28 00:38:03;;;;;;;3.23;2.93;;;20.20;99.90;;;;;;4984899;28;20685;-59
2021/06/28 00:40:29;;;;;;;2.92;2.72;;;20.10;99.90;;;;;;4989806;28;20437;-57
2021/06/28 00:42:55;;;;;;;3.00;2.80;;;20.10;99.90;;;;;;4990516;28;20554;-58
2021/06/28 00:45:26;;;;;;;2.95;2.75;;;20.00;99.90;;;;;;4982451;28;20936;-58
2021/06/28 00:47:53;;;;;;;3.40;3.08;;;19.90;99.90;;;;;;4978691;28;20215;-58
2021/06/28 00:50:21;;;;;;;3.42;3.13;;;19.90;99.90;;;;;;4988903;28;20278;-58
2021/06/28 00:52:48;;;;;;;3.22;3.00;;;19.90;99.90;;;;;;4977982;28;20271;-59
2021/06/28 00:55:15;;;;;;;3.80;3.58;;;19.90;99.90;;;;;;4991521;28;20214;-59
2021/06/28 00:57:41;;;;;;;3.20;3.00;;;19.80;99.90;;;;;;4982410;28;20299;-58
2021/06/28 01:00:09;;;;;;;3.72;3.53;;;19.80;99.90;;;;;;4992101;28;20597;-58
2021/06/28 01:02:36;;;;;;;3.15;2.90;;;19.90;99.90;;;;;;4986544;28;20732;-59
2021/06/28 01:05:09;;;;;;;3.17;2.92;;;19.90;99.90;;;;;;4989590;28;20195;-58
2021/06/28 01:07:34;;;;;;;3.15;2.95;;;19.90;99.90;;;;;;4984590;28;20681;-59
2021/06/28 01:10:00;;;;;;;3.30;3.00;;;20.00;99.90;;;;;;4986725;28;20186;-58
2021/06/28 01:12:25;;;;;;;3.80;3.50;;;20.00;99.90;;;;;;4988286;28;20191;-59
2021/06/28 01:14:52;;;;;;;3.40;2.70;;;20.00;99.90;;;;;;4977361;28;20218;-59
2021/06/28 01:17:18;;;;;;;3.22;3.03;;;20.10;99.90;;;;;;4989757;28;20187;-59
2021/06/28 01:19:55;;;;;;;2.90;2.70;;;20.30;99.90;;;;;;4988928;28;20189;-59
2021/06/28 01:22:26;;;;;;;2.85;2.65;;;20.40;99.90;;;;;;4978422;28;20195;-59
2021/06/28 01:24:56;;;;;;;2.30;2.20;;;20.50;99.90;;;;;;4984193;28;20195;-59
2021/06/28 01:27:22;;;;;;;3.20;2.92;;;20.50;99.90;;;;;;4996495;28;20215;-59
2021/06/28 01:29:48;;;;;;;2.78;2.58;;;20.50;99.90;;;;;;4982550;28;20187;-58
2021/06/28 01:32:14;;;;;;;2.90;2.70;;;20.50;99.90;;;;;;4977884;28;20190;-59
2021/06/28 01:34:39;;;;;;;3.10;2.60;;;20.50;99.90;;;;;;4976508;28;20463;-58
2021/06/28 01:37:18;;;;;;;3.37;3.17;;;20.50;99.90;;;;;;4982094;28;20180;-59
2021/06/28 01:39:45;;;;;;;3.38;3.10;;;20.60;99.90;;;;;;4977112;28;20243;-60
2021/06/28 01:42:11;;;;;;;2.63;2.47;;;20.70;99.90;;;;;;4989433;28;20202;-59
2021/06/28 01:44:36;;;;;;;2.70;2.50;;;20.70;99.90;;;;;;4989415;28;20579;-59
2021/06/28 01:47:02;;;;;;;3.23;2.93;;;20.60;99.90;;;;;;4990950;28;20179;-59
2021/06/28 01:49:28;;;;;;;4.80;3.10;;;20.50;99.90;;;;;;4987801;28;20259;-58
2021/06/28 01:51:54;;;;;;;3.10;2.80;;;20.40;99.90;;;;;;4975990;28;20476;-58
2021/06/28 01:54:20;;;;;;;2.90;2.70;;;20.40;99.90;;;;;;4975027;28;20294;-59
2021/06/28 01:56:46;;;;;;;3.00;2.80;;;20.40;99.90;;;;;;4977688;28;20725;-60
2021/06/28 01:59:11;;;;;;;3.50;3.20;;;20.30;99.90;;;;;;4983890;28;20200;-59
2021/06/28 02:01:38;;;;;;;3.13;2.90;;;20.40;99.90;;;;;;4989594;28;20219;-60
2021/06/28 02:04:04;;;;;;;3.05;2.83;;;20.40;99.90;;;;;;4989202;28;20203;-59
2021/06/28 02:06:30;;;;;;;3.38;3.10;;;20.30;99.90;;;;;;4983962;28;20183;-59
2021/06/28 02:08:56;;;;;;;3.53;3.23;;;20.30;99.90;;;;;;4986342;28;20262;-58
2021/06/28 02:11:21;;;;;;;2.93;2.73;;;20.30;99.90;;;;;;4984378;28;20184;-59
2021/06/28 02:13:47;;;;;;;3.33;3.13;;;20.30;99.90;;;;;;4980516;28;20187;-60
2021/06/28 02:16:12;;;;;;;3.30;3.10;;;20.30;99.90;;;;;;4987522;28;20301;-59
2021/06/28 02:18:38;;;;;;;3.87;3.63;;;20.40;99.90;;;;;;4982973;28;20227;-59
2021/06/28 02:21:04;;;;;;;3.57;3.37;;;20.40;99.90;;;;;;4990233;28;20254;-60
2021/06/28 02:23:38;;;;;;;3.47;3.28;;;20.40;99.90;;;;;;4982723;28;20199;-59
2021/06/28 02:26:05;;;;;;;3.22;2.92;;;20.40;99.90;;;;;;4990236;28;20188;-58
2021/06/28 02:28:37;;;;;;;3.80;3.50;;;20.40;99.90;;;;;;4988393;28;20247;-60
2021/06/28 02:31:05;;;;;;;3.58;3.28;;;20.30;99.90;;;;;;4987822;28;20275;-59
2021/06/28 02:33:32;;;;;;;3.40;3.20;;;20.30;99.90;;;;;;4985070;28;20232;-59
2021/06/28 02:35:57;;;;;;;3.47;3.28;;;20.30;99.90;;;;;;4983364;28;20579;-59
2021/06/28 02:38:23;;;;;;;3.77;3.47;;;20.20;99.90;;;;;;4981491;28;20207;-58
2021/06/28 02:40:50;;;;;;;3.70;3.40;;;20.10;99.90;;;;;;4972194;28;20196;-60
2021/06/28 02:43:17;;;;;;;3.80;3.45;;;20.10;99.90;;;;;;4973091;28;20260;-59
2021/06/28 02:45:43;;;;;;;4.10;3.70;;;20.10;99.90;;;;;;4985552;28;20192;-59
2021/06/28 02:48:09;;;;;;;4.38;3.97;;;20.00;99.90;;;;;;4977499;28;20226;-59
2021/06/28 02:50:34;;;;;;;3.67;3.37;;;20.00;99.90;;;;;;4978113;28;20187;-59
2021/06/28 02:53:00;;;;;;;3.40;3.10;;;20.00;99.90;;;;;;4982166;28;20184;-59
2021/06/28 02:55:27;;;;;;;3.63;3.43;;;19.90;99.90;;;;;;4987221;28;20210;-59
2021/06/28 02:57:53;;;;;;;4.20;3.90;;;19.80;99.90;;;;;;4984908;28;20458;-58
2021/06/28 03:00:19;;;;;;;3.77;3.47;;;19.80;99.90;;;;;;4984744;28;20180;-60
2021/06/28 03:02:45;;;;;;;3.77;3.57;;;19.90;99.90;;;;;;4979341;28;20645;-59
2021/06/28 03:05:11;;;;;;;3.53;3.23;;;19.90;99.90;;;;;;4986070;28;20445;-59
2021/06/28 03:07:38;;;;;;;4.00;3.70;;;20.00;99.90;;;;;;4985526;28;20462;-59
2021/06/28 03:10:09;;;;;;;3.60;3.30;;;20.00;99.90;;;;;;4983415;28;20889;-59
2021/06/28 03:12:35;;;;;;;4.00;3.70;;;20.10;99.90;;;;;;4978008;28;20194;-59
2021/06/28 03:15:03;;;;;;;3.65;3.30;;;20.10;99.90;;;;;;4978686;28;20726;-59
2021/06/28 03:17:30;;;;;;;3.22;3.03;;;20.10;99.90;;;;;;4982576;28;20567;-60
2021/06/28 03:19:55;;;;;;;3.40;3.20;;;20.10;99.90;;;;;;4983739;28;20202;-59
2021/06/28 03:22:21;;;;;;;4.50;4.10;;;20.10;99.90;;;;;;4980232;28;20584;-59
2021/06/28 03:24:47;;;;;;;3.30;3.10;;;20.00;99.90;;;;;;4982519;28;20266;-59
2021/06/28 03:27:13;;;;;;;3.58;3.33;;;20.10;99.90;;;;;;4989917;28;20253;-60
2021/06/28 03:29:38;;;;;;;3.60;3.30;;;20.20;99.90;;;;;;4988040;28;20184;-59
2021/06/28 03:32:04;;;;;;;4.30;3.50;;;20.20;99.90;;;;;;4979808;28;20593;-60
2021/06/28 03:34:31;;;;;;;3.70;3.50;;;20.20;99.90;;;;;;4988759;28;20286;-59
2021/06/28 03:36:57;;;;;;;5.65;3.05;;;20.30;99.90;;;;;;4984146;28;20458;-58
2021/06/28 03:39:22;;;;;;;3.60;3.30;;;20.20;99.90;;;;;;4983105;28;20245;-59
2021/06/28 03:41:48;;;;;;;3.60;3.40;;;20.20;99.90;;;;;;4989023;28;20179;-60
2021/06/28 03:44:13;;;;;;;3.77;3.47;;;20.30;99.90;;;;;;4984575;28;20183;-58
2021/06/28 03:46:39;;;;;;;3.60;3.30;;;20.20;99.90;;;;;;4984216;28;20202;-59
2021/06/28 03:49:05;;;;;;;3.30;3.10;;;20.20;99.90;;;;;;4983970;28;20204;-59
2021/06/28 03:51:31;;;;;;;3.37;3.17;;;20.20;99.90;;;;;;4991490;28;20195;-59
2021/06/28 03:53:56;;;;;;;3.40;3.20;;;20.20;99.90;;;;;;4979473;28;20179;-59
2021/06/28 03:56:22;;;;;;;4.53;4.13;;;20.30;99.90;;;;;;4988894;28;20541;-60
2021/06/28 03:58:48;;;;;;;4.40;3.67;;;20.30;99.90;;;;;;4985034;28;20200;-59
2021/06/28 04:01:14;;;;;;;4.07;3.78;;;20.40;99.90;;;;;;4995838;28;20478;-59
2021/06/28 04:03:39;;;;;;;3.70;3.50;;;20.40;99.90;;;;;;4984525;28;20577;-59
2021/06/28 04:06:07;;;;;;;3.87;3.57;;;20.30;99.90;;;;;;4982232;28;20237;-60
2021/06/28 04:08:35;;;;;;;3.65;3.35;;;20.30;99.90;;;;;;4986955;28;20235;-59
2021/06/28 04:11:00;;;;;;;3.72;3.47;;;20.30;99.90;;;;;;4985231;28;20728;-59
2021/06/28 04:13:27;;;;;;;4.63;4.23;;;20.20;99.90;;;;;;4984905;28;20279;-58
2021/06/28 04:15:53;;;;;;;4.88;4.00;;;20.30;99.90;;;;;;4983891;28;20463;-58
2021/06/28 04:18:19;;;;;;;3.90;3.70;;;20.20;99.90;;;;;;4981079;28;20214;-59
2021/06/28 04:20:45;;;;;;;3.65;3.45;;;20.30;99.90;;;;;;4985532;28;20252;-58
2021/06/28 04:23:11;;;;;;;4.40;4.10;;;20.30;99.90;;;;;;4979711;28;20555;-57
2021/06/28 04:25:37;;;;;;;4.03;3.73;;;20.40;99.90;;;;;;4986780;28;20447;-57
2021/06/28 04:28:03;;;;;;;3.88;3.58;;;20.50;99.90;;;;;;4981270;28;20207;-57
2021/06/28 04:30:29;;;;;;;5.32;3.92;;;20.50;99.90;;;;;;4986090;28;20190;-57
2021/06/28 04:32:55;;;;;;;4.10;3.80;;;20.50;99.90;;;;;;4980618;28;20192;-58
2021/06/28 04:35:24;;;;;;;3.57;3.27;;;20.60;99.90;;;;;;4983115;28;20207;-57
2021/06/28 04:37:55;;;;;;;3.70;3.40;;;20.70;99.90;;;;;;4976177;28;20722;-59
2021/06/28 04:40:25;;;;;;;3.00;2.80;;;20.70;99.90;;;;;;4985175;28;20176;-57
2021/06/28 04:42:51;;;;;;;5.35;3.70;;;20.70;99.90;;;;;;4981460;28;20180;-57
2021/06/28 04:45:18;;;;;;;6.13;3.60;;;20.80;99.90;;;;;;4989595;28;20436;-57
2021/06/28 04:47:44;;;;;;;4.22;3.80;;;20.70;99.90;;;;;;4979321;28;20467;-57
2021/06/28 04:50:11;;;;;;;4.38;3.97;;;20.60;99.90;;;;;;4982827;28;20188;-57
2021/06/28 04:52:38;;;;;;;4.75;4.28;;;20.60;99.90;;;;;;4989546;28;20187;-57
2021/06/28 04:55:06;;;;;;;5.47;4.07;;;20.60;99.90;;;;;;4987103;28;20230;-56
2021/06/28 04:57:32;;;;;;;4.70;4.30;;;20.70;99.90;;;;;;4974577;28;20561;-55
2021/06/28 04:59:57;;;;;;;4.70;4.30;;;20.70;99.90;;;;;;4977153;28;20203;-55
2021/06/28 05:02:23;;;;;;;4.70;4.30;;;20.60;99.90;;;;;;4976024;28;20439;-56
2021/06/28 05:04:49;;;;;;;4.20;3.80;;;20.40;99.90;;;;;;4973886;28;20660;-58
2021/06/28 05:07:15;;;;;;;6.40;4.30;;;20.40;99.90;;;;;;4984192;28;20439;-58
2021/06/28 05:09:42;;;;;;;6.72;4.60;;;20.30;99.90;;;;;;4989411;28;20278;-56
2021/06/28 05:12:09;;;;;;;4.60;4.10;;;20.30;99.90;;;;;;4990420;28;20270;-57
2021/06/28 05:14:35;;;;;;;5.07;4.13;;;20.30;99.90;;;;;;4982415;28;20626;-57
2021/06/28 05:17:00;;;;;;;4.87;4.50;;;20.30;99.90;;;;;;4984869;28;20184;-59
2021/06/28 05:19:26;;;;;;;5.87;5.33;;;20.20;99.90;;;;;;4988737;28;20182;-57
2021/06/28 05:21:52;;;;;;;5.20;4.80;;;20.20;99.90;;;;;;4982161;28;20210;-57
2021/06/28 05:24:17;;;;;;;4.90;4.50;;;20.20;99.90;;;;;;4978387;28;20192;-58
2021/06/28 05:26:43;;;;;;;4.13;3.80;;;20.30;99.90;;;;;;4986193;28;20199;-58
2021/06/28 05:29:09;;;;;;;4.70;4.27;;;20.30;99.90;;;;;;4987818;28;20204;-56
2021/06/28 05:31:34;;;;;;;4.60;4.20;;;20.40;99.90;;;;;;4977974;28;20185;-57
2021/06/28 05:34:00;;;;;;;4.97;4.57;;;20.50;99.90;;;;;;4986726;28;20173;-56
2021/06/28 05:36:26;;;;;;;4.60;4.20;;;20.60;99.90;;;;;;4986530;28;20526;-57
2021/06/28 05:38:51;;;;;;;5.33;4.90;;;20.70;99.90;;;;;;4986645;28;20753;-58
2021/06/28 05:41:18;;;;;;;5.73;5.07;;;20.80;99.90;;;;;;4986998;28;20210;-57
2021/06/28 05:43:45;;;;;;;4.85;4.45;;;20.80;99.90;;;;;;4974797;28;20188;-58
2021/06/28 05:46:11;;;;;;;3.92;3.72;;;20.90;99.90;;;;;;4992959;28;20192;-57
2021/06/28 05:48:37;;;;;;;4.90;4.38;;;21.00;99.90;;;;;;4979712;28;20605;-58
2021/06/28 05:51:03;;;;;;;4.83;4.43;;;21.10;99.90;;;;;;4972496;28;20256;-59
2021/06/28 05:53:29;;;;;;;4.50;4.10;;;21.30;99.90;;;;;;4983448;28;20211;-58
2021/06/28 05:55:58;;;;;;;4.50;4.10;;;21.40;99.90;;;;;;4984957;28;20466;-59
2021/06/28 05:58:25;;;;;;;4.68;4.28;;;21.50;99.90;;;;;;4983786;28;21023;-58
2021/06/28 06:00:52;;;;;;;4.85;4.20;;;21.80;99.90;;;;;;4980677;28;20553;-57
2021/06/28 06:03:18;;;;;;;4.30;3.90;;;22.00;99.90;;;;;;4983919;28;20195;-58
2021/06/28 06:05:43;;;;;;;4.30;4.00;;;22.20;99.90;;;;;;4970762;28;20187;-58
2021/06/28 06:08:10;;;;;;;4.00;3.40;;;22.40;99.90;;;;;;4981921;28;20297;-58
2021/06/28 06:10:35;;;;;;;3.45;3.20;;;22.40;99.90;;;;;;4981259;28;20675;-58
2021/06/28 06:13:01;;;;;;;3.37;3.10;;;22.50;99.90;;;;;;4985908;28;20196;-59
2021/06/28 06:15:27;;;;;;;3.57;3.27;;;22.60;99.90;;;;;;4971711;28;20211;-59
2021/06/28 06:17:52;;;;;;;3.63;3.30;;;22.80;99.90;;;;;;4972496;28;20270;-59
2021/06/28 06:20:18;;;;;;;3.73;3.47;;;22.90;99.90;;;;;;4979850;28;20200;-58
2021/06/28 06:22:44;;;;;;;3.63;3.28;;;22.90;99.90;;;;;;4977855;28;20208;-57
2021/06/28 06:25:10;;;;;;;3.50;3.23;;;22.90;99.90;;;;;;4984809;28;20278;-59
2021/06/28 06:27:36;;;;;;;4.50;3.30;;;23.20;99.90;;;;;;4990181;28;20207;-57
2021/06/28 06:30:04;;;;;;;3.73;3.30;;;23.40;99.90;;;;;;4984006;28;20442;-58
2021/06/28 06:32:30;;;;;;;4.60;3.87;;;23.60;99.90;;;;;;4981067;28;20244;-57
2021/06/28 06:34:55;;;;;;;4.53;4.20;;;23.60;99.90;;;;;;4975697;28;20478;-57
2021/06/28 06:37:21;;;;;;;3.87;3.57;;;23.50;99.90;;;;;;4984040;28;20582;-58
2021/06/28 06:39:47;;;;;;;3.23;2.93;;;23.60;99.90;;;;;;4981091;28;20184;-58
2021/06/28 06:42:12;;;;;;;3.40;3.10;;;23.80;99.90;;;;;;4976741;28;20219;-58
2021/06/28 06:44:38;;;;;;;3.37;3.10;;;24.00;99.90;;;;;;4973112;28;20271;-57
2021/06/28 06:47:07;;;;;;;3.20;3.00;;;24.10;99.90;;;;;;4985070;28;20194;-57
2021/06/28 06:49:32;;;;;;;3.83;3.53;;;24.20;99.90;;;;;;4985474;28;20282;-57
2021/06/28 06:51:58;;;;;;;3.33;3.03;;;24.20;99.90;;;;;;4980774;28;20519;-57
2021/06/28 06:54:24;;;;;;;3.20;3.00;;;24.30;99.90;;;;;;4976799;28;20184;-58
2021/06/28 06:56:49;;;;;;;3.60;3.30;;;24.50;99.90;;;;;;4982923;28;20180;-56
2021/06/28 06:59:15;;;;;;;3.17;2.80;;;24.80;99.90;;;;;;4984589;28;20623;-58
2021/06/28 07:01:42;;;;;;;3.40;3.20;;;25.10;99.60;;;;;;4981401;28;20189;-57
2021/06/28 07:04:08;;;;;;;3.00;2.80;;;25.40;99.00;;;;;;4981305;28;20168;-57
2021/06/28 07:06:34;;;;;;;3.10;2.90;;;25.90;97.90;;;;;;4983623;28;20438;-57
2021/06/28 07:08:59;;;;;;;3.33;3.03;;;26.50;96.60;;;;;;4982360;28;20455;-56
2021/06/28 07:11:25;;;;;;;2.80;2.60;;;29.10;92.70;;;;;;4981892;28;20449;-57
2021/06/28 07:13:52;;;;;;;3.07;2.87;;;31.60;85.40;;;;;;4978730;28;20277;-58
2021/06/28 07:16:30;;;;;;;6.17;5.60;;;32.60;76.40;;;;;;4985565;28;20207;-57
2021/06/28 07:18:55;;;;;;;4.17;3.87;;;33.00;73.50;;;;;;4977195;28;20467;-57
2021/06/28 07:21:21;;;;;;;2.60;2.37;;;33.60;70.60;;;;;;4979423;28;20453;-58
2021/06/28 07:23:48;;;;;;;2.50;2.30;;;34.70;64.10;;;;;;4977467;28;20608;-58
2021/06/28 07:26:14;;;;;;;3.23;2.47;;;35.50;60.10;;;;;;4967992;28;20192;-58
2021/06/28 07:28:40;;;;;;;3.30;2.50;;;35.90;59.00;;;;;;4979223;28;20459;-57
2021/06/28 07:31:05;;;;;;;2.63;2.47;;;36.90;56.80;;;;;;4983834;28;20199;-58
2021/06/28 07:33:38;;;;;;;3.10;2.40;;;37.50;55.60;;;;;;4972982;28;20978;-57
2021/06/28 07:36:04;;;;;;;2.73;2.53;;;37.10;53.50;;;;;;4969421;28;20798;-58
2021/06/28 07:38:29;;;;;;;2.43;2.33;;;37.60;54.10;;;;;;4987549;28;20485;-57
2021/06/28 07:40:55;;;;;;;4.20;2.53;;;38.20;52.10;;;;;;4987438;28;20430;-57
2021/06/28 07:43:21;;;;;;;2.40;2.23;;;38.00;51.30;;;;;;4985585;28;20211;-57
2021/06/28 07:45:47;;;;;;;2.67;2.57;;;38.70;51.80;;;;;;4988806;28;20179;-58
2021/06/28 07:48:14;;;;;;;2.30;2.20;;;40.00;48.00;;;;;;4986216;28;20214;-57
2021/06/28 07:50:40;;;;;;;2.93;2.70;;;40.70;45.70;;;;;;4979439;28;20439;-58
2021/06/28 07:53:05;;;;;;;3.43;3.23;;;40.00;46.00;;;;;;4975024;28;20450;-59
2021/06/28 07:55:31;;;;;;;3.03;2.30;;;40.50;44.80;;;;;;4980796;28;20219;-57
2021/06/28 07:57:57;;;;;;;2.70;2.50;;;40.40;43.80;;;;;;4983403;28;20211;-58
2021/06/28 08:00:22;;;;;;;4.77;3.00;;;40.90;42.80;;;;;;4981410;28;20206;-57
2021/06/28 08:02:49;;;;;;;2.10;2.00;;;41.90;42.10;;;;;;4977224;28;20191;-56
2021/06/28 08:05:14;;;;;;;2.30;2.20;;;42.40;38.70;;;;;;4980279;28;20200;-57
2021/06/28 08:07:40;;;;;;;2.97;2.37;;;42.00;39.50;;;;;;4984896;28;21180;-56
2021/06/28 08:10:14;;;;;;;2.63;2.43;;;42.00;38.60;;;;;;4979666;28;20196;-57
2021/06/28 08:12:41;;;;;;;2.50;2.40;;;41.60;38.40;;;;;;4992362;28;20638;-58
2021/06/28 08:15:08;;;;;;;2.80;2.60;;;40.20;38.90;;;;;;4983105;28;20474;-57
2021/06/28 08:17:33;;;;;;;2.70;2.50;;;38.90;40.70;;;;;;4982378;28;20933;-59
2021/06/28 08:19:59;;;;;;;3.80;2.83;;;38.20;42.20;;;;;;4980392;28;20469;-57
2021/06/28 08:22:25;;;;;;;3.17;2.70;;;38.70;42.80;;;;;;4976804;28;20662;-59
2021/06/28 08:24:50;;;;;;;4.70;3.10;;;38.90;43.10;;;;;;4974978;28;20191;-58
2021/06/28 08:27:16;;;;;;;2.83;2.70;;;39.50;42.60;;;;;;4979078;28;20192;-58
2021/06/28 08:29:42;;;;;;;3.30;2.93;;;39.80;41.50;;;;;;4973707;28;20195;-59
2021/06/28 08:32:08;;;;;;;3.47;3.17;;;39.60;41.50;;;;;;4974970;28;20642;-58
2021/06/28 08:34:34;;;;;;;3.20;2.90;;;39.50;42.70;;;;;;4982158;28;20474;-59
2021/06/28 08:37:00;;;;;;;3.10;2.90;;;39.80;41.30;;;;;;4979169;28;21813;-58
2021/06/28 08:39:28;;;;;;;3.03;2.83;;;38.30;43.60;;;;;;4973192;28;20212;-58
2021/06/28 08:41:55;;;;;;;2.80;2.70;;;37.60;43.70;;;;;;4984757;28;20657;-59
2021/06/28 08:44:22;;;;;;;3.20;3.00;;;37.40;44.00;;;;;;4981061;28;20521;-60
2021/06/28 08:46:48;;;;;;;3.17;2.97;;;38.30;43.80;;;;;;4980067;28;20447;-60
2021/06/28 08:49:15;;;;;;;3.03;2.83;;;38.10;43.60;;;;;;4984022;28;20842;-61
2021/06/28 08:51:43;;;;;;;2.80;2.60;;;38.40;42.60;;;;;;4998390;28;20447;-59
2021/06/28 08:54:12;;;;;;;2.97;2.77;;;38.80;41.80;;;;;;4995288;28;20450;-58
2021/06/28 08:56:39;;;;;;;3.07;2.90;;;38.50;41.50;;;;;;4974465;28;20960;-59
2021/06/28 08:59:06;;;;;;;2.90;2.70;;;37.90;43.20;;;;;;4982255;28;20451;-59
2021/06/28 09:01:33;;;;;;;2.33;2.13;;;38.10;41.60;;;;;;4978493;28;20426;-58
2021/06/28 09:03:59;;;;;;;3.40;2.57;;;38.40;41.30;;;;;;4980645;28;20874;-59
2021/06/28 09:06:30;;;;;;;5.93;5.07;;;38.30;40.90;;;;;;4979505;28;20430;-60
2021/06/28 09:09:16;;;;;;;3.00;2.80;;;37.40;42.20;;;;;;4984464;28;20442;-59
2021/06/28 09:11:52;;;;;;;2.90;2.70;;;37.50;43.70;;;;;;4985447;28;20517;-59
2021/06/28 09:14:21;;;;;;;2.80;2.60;;;36.50;43.60;;;;;;4979353;28;20436;-62
2021/06/28 09:16:47;;;;;;;2.80;2.60;;;36.80;44.60;;;;;;4989593;28;20526;-60
2021/06/28 09:19:20;;;;;;;2.70;2.53;;;38.70;41.80;;;;;;4981906;28;20505;-59
2021/06/28 09:21:55;;;;;;;2.63;2.53;;;39.10;41.40;;;;;;4979401;28;20834;-58
2021/06/28 09:24:26;;;;;;;2.63;2.43;;;39.30;40.00;;;;;;4973189;28;20442;-59
2021/06/28 09:27:11;;;;;;;4.40;3.10;;;39.60;39.60;;;;;;4980558;28;20458;-60
2021/06/28 09:29:52;;;;;;;3.00;2.80;;;40.70;38.80;;;;;;4981625;28;20545;-59
2021/06/28 09:32:19;;;;;;;3.50;3.30;;;40.40;39.10;;;;;;4988040;28;20474;-58
2021/06/28 09:34:47;;;;;;;3.37;2.73;;;40.40;39.20;;;;;;4985165;28;20462;-59
2021/06/28 09:37:15;;;;;;;3.07;2.87;;;40.50;39.00;;;;;;4986783;28;20443;-60
2021/06/28 09:39:43;;;;;;;4.07;3.03;;;40.50;39.10;;;;;;4981038;28;20970;-58
2021/06/28 09:42:15;;;;;;;3.10;2.90;;;39.60;39.80;;;;;;4973725;28;20446;-59
2021/06/28 09:44:54;;;;;;;3.33;2.63;;;38.40;41.10;;;;;;4984640;28;20893;-58
2021/06/28 09:47:24;;;;;;;3.40;3.10;;;39.30;41.00;;;;;;4975769;28;20537;-58
2021/06/28 09:50:09;;;;;;;3.00;2.80;;;39.40;40.30;;;;;;4988211;28;20442;-59
2021/06/28 09:52:36;;;;;;;3.43;3.23;;;40.00;38.60;;;;;;4980084;28;20471;-59
2021/06/28 09:55:22;;;;;;;3.60;3.40;;;39.20;39.50;;;;;;4981398;28;20983;-59
2021/06/28 09:58:08;;;;;;;3.37;3.17;;;40.00;39.20;;;;;;4976032;28;21152;-60
2021/06/28 10:00:40;;;;;;;2.77;2.53;;;41.20;36.50;;;;;;4973144;28;20490;-59
2021/06/28 10:03:06;;;;;;;3.20;3.00;;;41.80;35.60;;;;;;4979650;28;20430;-60
2021/06/28 10:05:55;;;;;;;3.10;2.90;;;40.30;36.70;;;;;;4978502;28;20955;-60
2021/06/28 10:08:21;;;;;;;3.00;2.80;;;40.40;37.60;;;;;;4985937;28;20297;-60
2021/06/28 10:10:46;;;;;;;3.20;2.97;;;40.00;38.00;;;;;;4981126;28;20538;-59
2021/06/28 10:13:12;;;;;;;3.90;3.60;;;39.70;38.20;;;;;;4994592;28;20305;-60
2021/06/28 10:15:42;;;;;;;3.30;3.00;;;40.20;38.00;;;;;;4986998;28;20211;-58
2021/06/28 10:18:10;;;;;;;3.17;2.97;;;39.00;38.60;;;;;;4978959;28;20239;-58
2021/06/28 10:20:41;;;;;;;5.43;5.00;;;40.00;38.20;;;;;;4973050;28;20936;-60
2021/06/28 10:23:07;;;;;;;4.73;4.43;;;40.20;39.10;;;;;;4979103;28;20450;-61
2021/06/28 10:25:34;;;;;;;4.30;4.00;;;41.20;37.40;;;;;;4971556;28;20455;-60
2021/06/28 10:28:01;;;;;;;3.23;3.03;;;41.80;36.10;;;;;;4982401;28;20668;-59
2021/06/28 10:30:27;;;;;;;4.50;4.20;;;42.20;35.80;;;;;;4986670;28;20538;-60
2021/06/28 10:32:59;;;;;;;2.97;2.77;;;42.00;35.70;;;;;;4976627;28;20447;-59
2021/06/28 10:35:34;;;;;;;3.37;3.17;;;41.60;35.40;;;;;;4980031;28;20490;-60
2021/06/28 10:38:06;;;;;;;3.10;2.90;;;41.70;36.60;;;;;;4970539;28;20529;-59
2021/06/28 10:40:47;;;;;;;3.33;3.03;;;41.20;36.30;;;;;;4983869;28;21071;-60
2021/06/28 10:43:28;;;;;;;3.20;2.90;;;40.90;36.50;;;;;;4975250;28;20447;-59
2021/06/28 10:45:55;;;;;;;2.77;2.57;;;41.70;35.70;;;;;;4977482;28;20522;-58
2021/06/28 10:48:23;;;;;;;4.90;3.10;;;41.50;35.50;;;;;;4988176;28;20481;-61
2021/06/28 10:51:01;;;;;;;3.30;3.10;;;41.10;35.60;;;;;;4979320;28;20809;-59
2021/06/28 10:53:33;;;;;;;3.03;2.83;;;41.40;35.10;;;;;;4976382;28;20550;-59
2021/06/28 10:56:28;;;;;;;3.27;3.07;;;41.40;35.20;;;;;;4985971;28;20835;-59
2021/06/28 10:59:02;;;;;;;3.00;2.90;;;40.90;35.10;;;;;;4960218;28;20908;-59
2021/06/28 11:01:42;;;;;;;3.23;2.93;;;41.40;35.60;;;;;;4979873;28;20450;-59
2021/06/28 11:04:16;;;;;;;3.47;3.17;;;41.30;35.00;;;;;;4974976;28;20461;-58
2021/06/28 11:07:02;;;;;;;3.30;3.10;;;41.10;35.70;;;;;;4986656;28;20470;-59
2021/06/28 11:09:57;;;;;;;3.20;3.00;;;41.30;36.00;;;;;;4976223;28;20454;-59
2021/06/28 11:12:31;;;;;;;2.80;2.60;;;40.70;36.10;;;;;;4972552;28;20968;-58
2021/06/28 11:15:02;;;;;;;3.00;2.80;;;40.80;36.20;;;;;;4981383;28;20468;-58
2021/06/28 11:17:45;;;;;;;3.10;2.90;;;39.90;37.10;;;;;;4973350;28;21020;-59
2021/06/28 11:20:30;;;;;;;3.20;3.00;;;39.20;38.30;;;;;;4976566;28;20522;-59
2021/06/28 11:23:17;;;;;;;3.30;3.10;;;38.50;39.80;;;;;;4981940;28;20459;-57
2021/06/28 11:25:43;;;;;;;3.03;2.83;;;37.60;40.80;;;;;;4980128;28;20438;-59
2021/06/28 11:28:18;;;;;;;3.67;3.37;;;37.20;41.70;;;;;;4979941;28;20496;-57
2021/06/28 11:30:53;;;;;;;3.40;3.20;;;36.90;42.60;;;;;;4978354;28;20192;-57
2021/06/28 11:33:38;;;;;;;3.57;3.37;;;36.90;43.20;;;;;;4982411;28;20508;-58
2021/06/28 11:36:28;;;;;;;4.17;3.87;;;36.90;42.70;;;;;;4976368;28;20463;-58
2021/06/28 11:38:56;;;;;;;4.30;4.00;;;36.30;42.90;;;;;;4978273;28;20573;-58
2021/06/28 11:41:24;;;;;;;7.60;3.40;;;35.60;44.30;;;;;;4975353;28;20439;-58
2021/06/28 11:44:03;;;;;;;4.00;3.60;;;35.50;45.20;;;;;;4983440;28;20443;-58
2021/06/28 11:46:32;;;;;;;3.70;3.40;;;35.20;45.60;;;;;;4985224;28;20446;-58
2021/06/28 11:49:07;;;;;;;3.50;3.30;;;34.70;46.00;;;;;;4985984;28;20456;-57
2021/06/28 11:51:41;;;;;;;3.47;3.27;;;34.20;47.70;;;;;;4975487;28;20665;-58
2021/06/28 11:54:12;;;;;;;3.40;3.00;;;34.20;48.30;;;;;;4973637;28;20443;-58
2021/06/28 11:56:44;;;;;;;4.60;4.30;;;33.80;48.60;;;;;;4970198;28;20913;-59
2021/06/28 11:59:18;;;;;;;4.00;3.70;;;33.40;49.20;;;;;;4979556;28;20493;-58
2021/06/28 12:01:55;;;;;;;3.20;3.00;;;32.60;49.80;;;;;;4976168;28;20441;-59
2021/06/28 12:04:26;;;;;;;6.00;3.70;;;32.50;50.80;;;;;;4977265;28;20437;-58
2021/06/28 12:06:53;;;;;;;3.57;3.37;;;32.50;50.80;;;;;;4978241;28;20909;-59
2021/06/28 12:09:20;;;;;;;4.63;3.60;;;32.50;50.90;;;;;;4981430;28;20458;-58
2021/06/28 12:12:07;;;;;;;3.50;3.20;;;32.50;51.00;;;;;;4985252;28;20945;-58
2021/06/28 12:14:40;;;;;;;3.97;3.67;;;32.60;50.60;;;;;;4978681;28;20435;-58
2021/06/28 12:17:12;;;;;;;3.83;3.53;;;32.80;51.60;;;;;;4978737;28;20446;-58
2021/06/28 12:19:40;;;;;;;3.80;3.40;;;32.90;52.60;;;;;;4978419;28;20936;-59
2021/06/28 12:22:16;;;;;;;4.07;3.50;;;33.10;51.90;;;;;;4979074;28;20989;-59
2021/06/28 12:25:08;;;;;;;3.27;3.07;;;33.00;52.30;;;;;;4974981;28;20448;-59
2021/06/28 12:27:36;;;;;;;3.57;3.27;;;32.80;52.20;;;;;;4978192;28;20468;-58
2021/06/28 12:30:06;;;;;;;3.80;3.50;;;32.70;53.00;;;;;;4975743;28;21020;-58
2021/06/28 12:32:34;;;;;;;5.33;3.33;;;32.70;53.10;;;;;;4985154;28;20444;-58
2021/06/28 12:35:09;;;;;;;4.67;4.27;;;32.30;53.50;;;;;;4986430;28;20540;-58
2021/06/28 12:37:42;;;;;;;3.63;3.43;;;32.10;54.20;;;;;;4974044;28;20790;-59
2021/06/28 12:40:14;;;;;;;3.80;3.60;;;32.10;53.90;;;;;;4980541;28;20439;-59
2021/06/28 12:42:46;;;;;;;4.30;4.00;;;32.20;53.90;;;;;;5001664;28;20429;-59
2021/06/28 12:45:14;;;;;;;5.03;3.90;;;32.20;54.20;;;;;;4984648;28;20432;-59
2021/06/28 12:47:42;;;;;;;4.23;3.60;;;31.90;54.80;;;;;;4982279;28;20546;-58
2021/06/28 12:50:13;;;;;;;3.70;3.50;;;32.10;55.00;;;;;;4986123;28;20753;-58
2021/06/28 12:52:42;;;;;;;3.97;3.77;;;32.30;55.00;;;;;;4985000;28;20444;-58
2021/06/28 12:55:29;;;;;;;4.20;3.80;;;32.20;55.00;;;;;;4986541;28;20507;-59